createdAt,value
2022-09-27T00:00:40.253Z,69.16
2022-09-27T00:03:12.193Z,69.31
2022-09-27T00:05:43.474Z,70.41
2022-09-27T00:08:12.130Z,69.68
2022-09-27T00:10:42.148Z,69.05
2022-09-27T00:13:13.065Z,69.66
2022-09-27T00:15:46.033Z,70.60
2022-09-27T00:18:14.471Z,71.04
2022-09-27T00:20:45.909Z,71.15
2022-09-27T00:23:15.157Z,70.65
2022-09-27T00:25:55.856Z,70.27
2022-09-27T00:28:25.986Z,70.63
2022-09-27T00:31:04.092Z,69.89
2022-09-27T00:33:32.759Z,69.55
2022-09-27T00:36:04.978Z,69.12
2022-09-27T00:38:35.270Z,68.89
2022-09-27T00:41:05.911Z,68.56
2022-09-27T00:43:44.877Z,68.32
2022-09-27T00:46:18.485Z,68.16
2022-09-27T00:48:46.955Z,68.32
2022-09-27T00:51:19.017Z,68.33
2022-09-27T00:53:49.355Z,68.35
2022-09-27T00:56:21.154Z,68.18
2022-09-27T00:58:50.570Z,68.16
2022-09-27T01:01:26.910Z,68.45
2022-09-27T01:03:57.080Z,69.15
2022-09-27T01:06:28.872Z,69.16
2022-09-27T01:08:57.256Z,69.20
2022-09-27T01:11:33.191Z,70.10
2022-09-27T01:14:12.078Z,69.49
2022-09-27T01:16:50.273Z,69.72
2022-09-27T01:19:21.739Z,69.85
2022-09-27T01:21:52.282Z,70.24
2022-09-27T01:24:37.442Z,70.28
2022-09-27T01:27:24.861Z,70.32
2022-09-27T01:29:58.677Z,70.64
2022-09-27T01:32:30.793Z,70.24
2022-09-27T01:35:01.676Z,70.09
2022-09-27T01:37:33.287Z,70.25
2022-09-27T01:40:08.885Z,69.92
2022-09-27T01:42:43.710Z,69.73
2022-09-27T01:45:14.451Z,70.61
2022-09-27T01:47:45.876Z,69.76
2022-09-27T01:50:15.503Z,69.69
2022-09-27T01:52:47.656Z,69.46
2022-09-27T01:55:16.560Z,68.92
2022-09-27T01:57:47.758Z,69.21
2022-09-27T02:00:19.133Z,68.95
2022-09-27T02:02:51.478Z,69.01
2022-09-27T02:05:30.073Z,68.92
2022-09-27T02:08:03.486Z,68.61
2022-09-27T02:10:34.333Z,67.54
2022-09-27T02:13:03.796Z,68.68
2022-09-27T02:15:36.194Z,68.82
2022-09-27T02:18:16.631Z,67.96
2022-09-27T02:20:46.424Z,68.45
2022-09-27T02:23:17.209Z,68.27
2022-09-27T02:25:48.071Z,68.16
2022-09-27T02:28:20.282Z,67.92
2022-09-27T02:30:49.044Z,68.25
2022-09-27T02:33:24.485Z,68.45
2022-09-27T02:35:53.325Z,68.61
2022-09-27T02:38:22.023Z,68.50
2022-09-27T02:40:50.586Z,68.20
2022-09-27T02:43:23.393Z,68.14
2022-09-27T02:45:55.418Z,68.16
2022-09-27T02:48:27.554Z,68.67
2022-09-27T02:51:06.363Z,68.72
2022-09-27T02:53:39.455Z,68.57
2022-09-27T02:56:15.688Z,68.63
2022-09-27T02:58:50.616Z,68.77
2022-09-27T03:01:21.106Z,68.88
2022-09-27T03:03:54.936Z,68.77
2022-09-27T03:06:23.774Z,68.77
2022-09-27T03:08:53.113Z,69.13
2022-09-27T03:11:21.912Z,69.96
2022-09-27T03:14:08.478Z,70.07
2022-09-27T03:16:44.951Z,69.58
2022-09-27T03:19:21.778Z,69.34
2022-09-27T03:21:52.260Z,69.56
2022-09-27T03:24:21.736Z,69.40
2022-09-27T03:26:52.451Z,69.86
2022-09-27T03:29:21.840Z,69.72
2022-09-27T03:31:51.631Z,69.82
2022-09-27T03:34:25.520Z,70.39
2022-09-27T03:36:54.164Z,70.65
2022-09-27T03:39:24.703Z,70.48
2022-09-27T03:41:53.194Z,70.48
2022-09-27T03:44:26.145Z,70.22
2022-09-27T03:46:55.977Z,70.50
2022-09-27T03:49:30.271Z,70.42
2022-09-27T03:52:00.459Z,70.58
2022-09-27T03:54:30.389Z,71.14
2022-09-27T03:56:59.260Z,71.09
2022-09-27T03:59:29.126Z,71.02
2022-09-27T04:02:00.437Z,71.38
2022-09-27T04:04:32.639Z,71.45
2022-09-27T04:07:02.962Z,71.40
2022-09-27T04:09:33.080Z,71.60
2022-09-27T04:12:04.279Z,72.32
2022-09-27T04:14:35.426Z,72.28
2022-09-27T04:17:07.269Z,72.40
2022-09-27T04:19:40.036Z,71.88
2022-09-27T04:22:09.822Z,73.57
2022-09-27T04:24:47.530Z,73.88
2022-09-27T04:27:19.491Z,73.43
2022-09-27T04:29:51.370Z,73.39
2022-09-27T04:32:23.857Z,73.31
2022-09-27T04:35:11.210Z,73.68
2022-09-27T04:37:45.122Z,73.80
2022-09-27T04:40:13.995Z,74.08
2022-09-27T04:42:48.209Z,72.62
2022-09-27T04:45:17.805Z,72.87
2022-09-27T04:47:50.553Z,73.10
2022-09-27T04:50:20.148Z,73.52
2022-09-27T04:53:01.948Z,73.53
2022-09-27T04:55:34.247Z,73.88
2022-09-27T04:58:02.751Z,74.11
2022-09-27T05:00:33.015Z,74.03
2022-09-27T05:03:02.504Z,74.20
2022-09-27T05:05:33.774Z,73.13
2022-09-27T05:08:04.089Z,73.01
2022-09-27T05:10:35.832Z,73.21
2022-09-27T05:13:04.245Z,73.27
2022-09-27T05:15:36.590Z,73.43
2022-09-27T05:18:14.748Z,72.87
2022-09-27T05:21:01.089Z,73.29
2022-09-27T05:23:31.038Z,75.00
2022-09-27T05:26:01.930Z,74.88
2022-09-27T05:28:31.436Z,75.64
2022-09-27T05:31:08.067Z,75.65
2022-09-27T05:33:37.190Z,74.73
2022-09-27T05:36:12.188Z,74.52
2022-09-27T05:38:46.102Z,74.00
2022-09-27T05:41:16.015Z,74.27
2022-09-27T05:43:49.665Z,74.26
2022-09-27T05:46:18.517Z,73.53
2022-09-27T05:48:48.921Z,74.06
2022-09-27T05:51:21.169Z,74.00
2022-09-27T05:53:56.357Z,73.80
2022-09-27T05:56:26.016Z,74.16
2022-09-27T05:58:56.585Z,74.74
2022-09-27T06:01:28.206Z,74.14
2022-09-27T06:03:59.859Z,74.91
2022-09-27T06:06:29.182Z,74.51
2022-09-27T06:09:01.575Z,74.06
2022-09-27T06:11:30.482Z,75.16
2022-09-27T06:14:06.397Z,75.38
2022-09-27T06:16:38.290Z,74.81
2022-09-27T06:19:10.423Z,74.50
2022-09-27T06:21:46.919Z,74.71
2022-09-27T06:24:19.734Z,74.18
2022-09-27T06:26:51.955Z,73.17
2022-09-27T06:29:27.521Z,74.41
2022-09-27T06:31:57.121Z,74.27
2022-09-27T06:34:29.568Z,73.90
2022-09-27T06:37:01.483Z,74.12
2022-09-27T06:39:39.286Z,74.15
2022-09-27T06:42:19.591Z,73.31
2022-09-27T06:44:55.549Z,73.71
2022-09-27T06:47:26.369Z,74.07
2022-09-27T06:49:55.661Z,73.63
2022-09-27T06:52:24.458Z,72.98
2022-09-27T06:54:57.041Z,72.72
2022-09-27T06:57:40.238Z,72.83
2022-09-27T07:00:33.463Z,71.57
2022-09-27T07:03:03.460Z,72.68
2022-09-27T07:05:32.352Z,73.13
2022-09-27T07:08:07.309Z,72.83
2022-09-27T07:10:37.804Z,72.73
2022-09-27T07:13:07.531Z,73.53
2022-09-27T07:15:38.699Z,72.54
2022-09-27T07:18:08.692Z,72.53
2022-09-27T07:20:38.491Z,72.45
2022-09-27T07:23:10.397Z,72.25
2022-09-27T07:25:40.530Z,72.29
2022-09-27T07:28:10.856Z,71.42
2022-09-27T07:30:39.759Z,71.20
2022-09-27T07:33:13.324Z,70.57
2022-09-27T07:35:42.345Z,71.51
2022-09-27T07:38:14.471Z,70.03
2022-09-27T07:40:44.957Z,70.69
2022-09-27T07:43:16.297Z,70.56
2022-09-27T07:45:45.405Z,70.42
2022-09-27T07:48:17.838Z,70.56
2022-09-27T07:50:47.781Z,70.58
2022-09-27T07:53:24.276Z,69.77
2022-09-27T07:56:02.639Z,69.69
2022-09-27T07:58:32.462Z,69.63
2022-09-27T08:01:02.602Z,69.70
2022-09-27T08:03:31.793Z,69.84
2022-09-27T08:06:03.613Z,68.70
2022-09-27T08:08:33.552Z,69.53
2022-09-27T08:11:12.210Z,69.62
2022-09-27T08:13:52.732Z,69.46
2022-09-27T08:16:32.458Z,69.33
2022-09-27T08:19:05.124Z,69.55
2022-09-27T08:21:40.081Z,69.70
2022-09-27T08:24:14.439Z,69.77
2022-09-27T08:26:49.041Z,69.86
2022-09-27T08:29:21.096Z,70.50
2022-09-27T08:31:57.390Z,69.99
2022-09-27T08:34:26.068Z,69.66
2022-09-27T08:37:00.466Z,68.87
2022-09-27T08:39:29.529Z,68.97
2022-09-27T08:42:02.345Z,69.10
2022-09-27T08:44:41.065Z,69.13
2022-09-27T08:47:12.470Z,68.23
2022-09-27T08:49:43.110Z,67.85
2022-09-27T08:52:14.286Z,68.25
2022-09-27T08:54:44.602Z,68.60
2022-09-27T08:57:14.379Z,68.80
2022-09-27T08:59:45.184Z,69.44
2022-09-27T09:02:15.968Z,69.63
2022-09-27T09:04:46.345Z,69.09
2022-09-27T09:07:17.677Z,69.38
2022-09-27T09:09:48.554Z,69.81
2022-09-27T09:12:40.002Z,69.16
2022-09-27T09:15:14.979Z,68.44
2022-09-27T09:17:54.562Z,67.78
2022-09-27T09:20:31.237Z,69.07
2022-09-27T09:23:25.091Z,69.32
2022-09-27T09:25:55.392Z,71.03
2022-09-27T09:28:32.530Z,71.02
2022-09-27T09:31:04.590Z,72.43
2022-09-27T09:33:35.268Z,71.36
2022-09-27T09:36:10.993Z,71.49
2022-09-27T09:38:42.368Z,71.47
2022-09-27T09:41:16.871Z,70.98
2022-09-27T09:43:50.152Z,71.37
2022-09-27T09:46:20.037Z,70.93
2022-09-27T09:48:50.931Z,71.10
2022-09-27T09:51:22.172Z,70.61
2022-09-27T09:53:53.385Z,69.68
2022-09-27T09:56:24.501Z,69.75
2022-09-27T09:58:55.287Z,70.06
2022-09-27T10:01:24.804Z,69.85
2022-09-27T10:03:55.701Z,70.49
2022-09-27T10:06:24.760Z,70.16
2022-09-27T10:08:55.923Z,69.62
2022-09-27T10:11:27.490Z,69.76
2022-09-27T10:13:58.535Z,69.94
2022-09-27T10:16:28.874Z,70.17
2022-09-27T10:18:59.090Z,69.80
2022-09-27T10:21:28.786Z,69.60
2022-09-27T10:24:10.441Z,70.09
2022-09-27T10:26:45.037Z,69.29
2022-09-27T10:29:35.018Z,69.37
2022-09-27T10:32:06.982Z,70.06
2022-09-27T10:34:36.399Z,69.65
2022-09-27T10:37:17.364Z,69.68
2022-09-27T10:39:51.031Z,69.22
2022-09-27T10:42:21.181Z,68.39
2022-09-27T10:44:54.950Z,68.27
2022-09-27T10:47:23.927Z,68.37
2022-09-27T10:49:57.487Z,68.23
2022-09-27T10:52:26.557Z,68.51
2022-09-27T10:55:00.949Z,67.43
2022-09-27T10:57:43.024Z,67.44
2022-09-27T11:00:20.381Z,67.29
2022-09-27T11:02:53.116Z,67.37
2022-09-27T11:05:34.000Z,67.25
2022-09-27T11:08:04.053Z,66.86
2022-09-27T11:10:37.144Z,66.58
2022-09-27T11:13:13.022Z,65.54
2022-09-27T11:15:51.222Z,65.32
2022-09-27T11:18:28.512Z,64.00
2022-09-27T11:20:58.470Z,63.94
2022-09-27T11:23:36.469Z,63.96
2022-09-27T11:26:13.521Z,63.77
2022-09-27T11:28:45.296Z,63.27
2022-09-27T11:31:19.672Z,62.88
2022-09-27T11:33:57.329Z,62.71
2022-09-27T11:36:29.737Z,63.11
2022-09-27T11:39:02.953Z,62.94
2022-09-27T11:41:43.894Z,62.89
2022-09-27T11:44:22.479Z,62.86
2022-09-27T11:46:52.602Z,62.67
2022-09-27T11:49:36.276Z,62.85
2022-09-27T11:52:12.664Z,63.22
2022-09-27T11:54:48.227Z,63.00
2022-09-27T11:57:18.979Z,63.09
2022-09-27T11:59:51.638Z,62.98
2022-09-27T12:02:33.237Z,63.03
2022-09-27T12:07:45.476Z,63.37
2022-09-27T12:10:15.281Z,62.25
2022-09-27T12:12:45.744Z,62.42
2022-09-27T12:15:17.246Z,63.13
2022-09-27T12:17:46.534Z,63.50
2022-09-27T12:20:18.733Z,63.18
2022-09-27T12:22:59.076Z,63.18
2022-09-27T12:25:31.096Z,64.20
2022-09-27T12:28:01.967Z,64.42
2022-09-27T12:30:31.279Z,64.09
2022-09-27T12:33:02.884Z,64.10
2022-09-27T12:35:33.700Z,64.50
2022-09-27T12:38:06.753Z,65.62
2022-09-27T12:40:46.331Z,65.20
2022-09-27T12:43:17.968Z,63.84
2022-09-27T12:45:54.185Z,62.92
2022-09-27T12:48:32.726Z,62.39
2022-09-27T12:51:03.215Z,61.34
2022-09-27T12:53:35.507Z,61.60
2022-09-27T12:56:10.394Z,60.41
2022-09-27T12:58:59.248Z,59.84
2022-09-27T13:01:41.805Z,61.22
2022-09-27T13:04:29.911Z,60.24
2022-09-27T13:07:11.432Z,60.16
2022-09-27T13:09:47.589Z,60.82
2022-09-27T13:12:19.074Z,61.33
2022-09-27T13:14:52.641Z,61.08
2022-09-27T13:17:40.770Z,60.36
2022-09-27T13:20:35.290Z,60.94
2022-09-27T13:23:05.657Z,61.87
2022-09-27T13:26:01.187Z,61.12
2022-09-27T13:28:41.657Z,60.46
2022-09-27T13:31:15.798Z,60.73
2022-09-27T13:33:51.814Z,61.34
2022-09-27T13:36:28.445Z,61.44
2022-09-27T13:39:17.698Z,61.56
2022-09-27T13:42:14.651Z,61.57
2022-09-27T13:44:46.488Z,60.90
2022-09-27T13:47:27.414Z,59.28
2022-09-27T13:49:59.172Z,59.39
2022-09-27T13:52:29.098Z,58.49
2022-09-27T13:55:08.222Z,59.31
2022-09-27T13:57:43.465Z,59.48
2022-09-27T14:00:13.687Z,57.89
2022-09-27T14:02:51.801Z,63.62
2022-09-27T14:05:22.031Z,67.29
2022-09-27T14:07:51.655Z,70.76
2022-09-27T14:10:24.394Z,72.36
2022-09-27T14:12:55.496Z,71.76
2022-09-27T16:07:37.038Z,74.54
2022-09-27T16:14:33.803Z,75.12
2022-09-27T16:17:45.246Z,74.66
2022-09-27T16:20:19.752Z,74.12
2022-09-27T16:23:05.490Z,73.09
2022-09-27T16:25:52.659Z,74.73
2022-09-27T16:28:31.139Z,73.17
2022-09-27T16:31:14.814Z,74.53
2022-09-27T16:34:41.999Z,74.46
2022-09-27T16:42:34.721Z,73.90
2022-09-27T16:45:33.809Z,72.75
2022-09-27T16:49:24.047Z,72.53
2022-09-27T16:52:35.067Z,73.15
2022-09-27T16:55:58.408Z,73.81
2022-09-27T16:58:41.415Z,73.50
2022-09-27T17:01:47.332Z,74.63
2022-09-27T17:04:26.790Z,73.76
2022-09-27T17:07:09.841Z,71.97
2022-09-27T17:09:55.914Z,74.40
2022-09-27T17:13:02.914Z,73.69
2022-09-27T17:15:39.015Z,72.82
2022-09-27T17:18:26.073Z,71.99
2022-09-27T17:21:09.440Z,71.94
2022-09-27T17:24:13.174Z,72.18
2022-09-27T17:26:54.937Z,72.04
2022-09-27T17:29:54.598Z,72.32
2022-09-27T17:32:58.435Z,72.35
2022-09-27T17:35:45.561Z,73.04
2022-09-27T17:38:22.801Z,73.35
2022-09-27T17:41:15.320Z,72.53
2022-09-27T17:44:12.774Z,73.82
2022-09-27T17:47:23.807Z,74.99
2022-09-27T17:50:20.244Z,74.32
2022-09-27T17:53:03.925Z,74.60
2022-09-27T17:55:46.470Z,74.56
2022-09-27T17:58:32.946Z,73.79
2022-09-27T18:01:17.190Z,74.97
2022-09-27T18:03:59.230Z,75.48
2022-09-27T18:06:57.772Z,74.39
2022-09-27T18:10:15.978Z,74.58
2022-09-27T18:12:57.167Z,74.32
2022-09-27T18:15:43.476Z,74.80
2022-09-27T18:18:33.508Z,74.13
2022-09-27T18:21:17.160Z,73.60
2022-09-27T18:24:18.264Z,73.92
2022-09-27T18:29:37.590Z,74.10
2022-09-27T18:32:36.316Z,74.60
2022-09-27T18:35:15.830Z,73.18
2022-09-27T18:37:58.106Z,72.89
2022-09-27T18:40:55.767Z,72.11
2022-09-27T18:43:55.319Z,72.33
2022-09-27T18:46:50.607Z,72.98
2022-09-27T18:49:34.140Z,71.39
2022-09-27T18:52:17.432Z,71.91
2022-09-27T18:55:13.725Z,72.45
2022-09-27T18:58:01.863Z,71.42
2022-09-27T19:00:48.521Z,72.52
2022-09-27T19:03:25.530Z,72.67
2022-09-27T19:06:06.817Z,71.40
2022-09-27T19:08:39.789Z,71.84
2022-09-27T19:11:22.718Z,71.56
2022-09-27T19:13:59.992Z,71.81
2022-09-27T19:16:37.879Z,70.87
2022-09-27T19:19:12.918Z,71.56
2022-09-27T19:21:49.356Z,71.82
2022-09-27T19:24:43.905Z,72.06
2022-09-27T19:27:22.963Z,72.39
2022-09-27T19:30:07.154Z,71.43
2022-09-27T19:32:48.468Z,70.16
2022-09-27T19:35:28.806Z,70.55
2022-09-27T19:38:19.963Z,71.04
2022-09-27T19:41:17.722Z,71.53
2022-09-27T19:44:07.570Z,72.21
2022-09-27T19:47:08.278Z,71.71
2022-09-27T19:50:12.536Z,71.07
2022-09-27T19:53:05.676Z,71.98
2022-09-27T19:56:07.820Z,72.60
2022-09-27T19:59:08.566Z,71.77
2022-09-27T20:01:51.851Z,71.04
2022-09-27T20:04:35.639Z,71.02
2022-09-27T20:07:16.675Z,71.81
2022-09-27T20:09:58.350Z,70.20
2022-09-27T20:12:40.434Z,70.53
2022-09-27T20:15:24.949Z,70.60
2022-09-27T20:18:09.392Z,70.99
2022-09-27T20:21:17.211Z,70.74
2022-09-27T20:24:33.424Z,71.69
2022-09-27T20:27:25.921Z,70.68
2022-09-27T20:30:25.449Z,68.74
2022-09-27T20:33:44.958Z,68.99
2022-09-27T20:36:18.602Z,70.06
2022-09-27T20:38:48.759Z,67.41
2022-09-27T20:41:39.535Z,68.34
2022-09-27T20:44:24.795Z,67.12
2022-09-27T20:47:25.962Z,68.54
2022-09-27T20:50:09.337Z,69.87
2022-09-27T20:52:54.403Z,68.18
2022-09-27T20:55:25.175Z,68.03
2022-09-27T20:57:57.827Z,67.60
2022-09-27T21:00:31.245Z,68.12
2022-09-27T21:03:05.850Z,68.38
2022-09-27T21:05:36.714Z,66.54
2022-09-27T21:08:42.641Z,66.05
2022-09-27T21:11:25.283Z,66.50
2022-09-27T21:14:32.182Z,66.92
2022-09-27T21:17:34.944Z,66.91
2022-09-27T21:20:21.003Z,66.95
2022-09-27T21:22:57.585Z,66.22
2022-09-27T21:25:37.377Z,65.76
2022-09-27T21:28:18.134Z,65.71
2022-09-27T21:31:07.834Z,65.69
2022-09-27T21:33:50.568Z,64.84
2022-09-27T21:36:33.198Z,65.21
2022-09-27T21:39:16.566Z,65.21
2022-09-27T21:42:13.094Z,65.70
2022-09-27T21:45:04.835Z,64.55
2022-09-27T21:47:51.929Z,65.25
2022-09-27T21:51:05.910Z,64.53
2022-09-27T22:00:48.936Z,64.81
2022-09-27T22:03:30.951Z,64.53
2022-09-27T22:06:15.694Z,65.06
2022-09-27T22:09:17.371Z,64.84
2022-09-27T22:12:38.939Z,65.18
2022-09-27T22:18:40.519Z,63.66
2022-09-27T22:21:25.039Z,64.05
2022-09-27T22:24:20.406Z,64.77
2022-09-27T22:27:01.008Z,63.90
2022-09-27T22:29:45.289Z,64.08
2022-09-27T22:32:28.393Z,64.95
2022-09-27T22:35:09.716Z,64.87
2022-09-27T22:40:36.003Z,63.62
2022-09-27T22:43:14.606Z,65.08
2022-09-27T22:45:43.403Z,64.63
2022-09-27T22:48:15.687Z,63.90
2022-09-27T22:50:59.785Z,63.47
2022-09-27T22:53:28.982Z,64.66
2022-09-27T22:56:01.959Z,63.91
2022-09-27T22:58:39.244Z,63.26
2022-09-27T23:01:08.957Z,63.70
2022-09-27T23:03:40.613Z,62.53
2022-09-27T23:06:10.849Z,61.89
2022-09-27T23:08:47.541Z,62.05
2022-09-27T23:11:37.411Z,63.49
2022-09-27T23:14:09.486Z,62.61
2022-09-27T23:16:39.583Z,62.37
2022-09-27T23:19:10.263Z,62.58
2022-09-27T23:21:40.522Z,61.62
2022-09-27T23:24:11.994Z,62.46
2022-09-27T23:26:41.947Z,63.03
2022-09-27T23:29:12.545Z,62.89
2022-09-27T23:31:44.010Z,63.38
2022-09-27T23:34:26.846Z,60.23
2022-09-27T23:37:24.613Z,60.25
2022-09-27T23:40:02.680Z,60.95
2022-09-27T23:42:43.741Z,58.83
2022-09-27T23:45:14.317Z,58.81
2022-09-27T23:47:45.020Z,60.03
2022-09-27T23:50:15.574Z,61.62
2022-09-27T23:52:54.559Z,61.63
2022-09-27T23:55:26.054Z,62.31
2022-09-27T23:58:13.156Z,62.42
